Time;durP1;ratioP1;P1;durP2;ratioP2;P2;SDS_P1;SDS_P2;PMS_P1;PMS_P2;Temp;Humidity;BMP_temperature;BMP_pressure;BME280_temperature;BME280_humidity;BME280_pressure;Samples;Min_cycle;Max_cycle;Signal;HPM_P1;HPM_P2
2022/01/08 00:01:58;;;;;;;;;;;-2.00;99.90;;;;;;5072533;28;19962;-73
2022/01/08 00:04:23;;;;;;;;;;;-2.00;99.90;;;;;;5055116;28;20113;-73
2022/01/08 00:06:49;;;;;;;;;;;-2.10;99.90;;;;;;5072710;28;20015;-74
2022/01/08 00:09:14;;;;;;;;;;;-2.00;99.90;;;;;;5072972;28;19904;-73
2022/01/08 00:11:42;;;;;;;;;;;-2.00;99.90;;;;;;5054697;28;19919;-73
2022/01/08 00:14:10;;;;;;;;;;;-2.10;99.90;;;;;;5072662;28;20371;-73
2022/01/08 00:16:37;;;;;;;;;;;-2.10;99.90;;;;;;5054442;28;19916;-74
2022/01/08 00:19:06;;;;;;;;;;;-2.20;99.90;;;;;;5072535;28;19909;-74
2022/01/08 00:21:31;;;;;;;;;;;-2.10;99.90;;;;;;5072296;28;20442;-72
2022/01/08 00:23:57;;;;;;;;;;;-2.10;99.90;;;;;;5053558;28;19912;-73
2022/01/08 00:26:23;;;;;;;;;;;-2.10;99.90;;;;;;5064253;28;20432;-72
2022/01/08 00:28:48;;;;;;;;;;;-2.10;99.90;;;;;;5034458;28;19915;-73
2022/01/08 00:31:14;;;;;;;;;;;-2.10;99.90;;;;;;5059295;28;19908;-72
2022/01/08 00:33:39;;;;;;;;;;;-2.20;99.90;;;;;;5072323;28;19912;-73
2022/01/08 00:36:06;;;;;;;;;;;-2.20;99.90;;;;;;5066726;28;20347;-72
2022/01/08 00:38:31;;;;;;;;;;;-2.20;99.90;;;;;;5052492;28;19912;-73
2022/01/08 00:40:57;;;;;;;;;;;-2.20;99.90;;;;;;5059883;28;19917;-73
2022/01/08 00:43:22;;;;;;;;;;;-2.20;99.90;;;;;;5072126;28;20348;-73
2022/01/08 00:45:48;;;;;;;;;;;-2.30;99.90;;;;;;5072033;28;19923;-73
2022/01/08 00:48:13;;;;;;;;;;;-2.30;99.90;;;;;;5072140;28;19996;-73
2022/01/08 00:50:39;;;;;;;;;;;-2.30;99.90;;;;;;5053599;28;19923;-73
2022/01/08 00:53:05;;;;;;;;;;;-2.40;99.90;;;;;;5071944;28;20315;-72
2022/01/08 00:55:30;;;;;;;;;;;-2.40;99.90;;;;;;5071496;28;19912;-72
2022/01/08 00:57:56;;;;;;;;;;;-2.40;99.90;;;;;;5071871;28;19904;-72
2022/01/08 01:00:21;;;;;;;;;;;-2.40;99.90;;;;;;5071872;28;19920;-73
2022/01/08 01:02:47;;;;;;;;;;;-2.40;99.90;;;;;;5071033;28;20303;-73
2022/01/08 01:05:13;;;;;;;;;;;-2.40;99.90;;;;;;5053488;28;19928;-72
2022/01/08 01:07:38;;;;;;;;;;;-2.40;99.90;;;;;;5053337;28;20278;-73
2022/01/08 01:10:05;;;;;;;;;;;-2.40;99.90;;;;;;5071481;28;19920;-72
2022/01/08 01:12:31;;;;;;;;;;;-2.40;99.90;;;;;;5071010;28;19969;-72
2022/01/08 01:14:56;;;;;;;;;;;-2.40;99.90;;;;;;5071356;28;20344;-73
2022/01/08 01:17:22;;;;;;;;;;;-2.40;99.90;;;;;;5071263;28;19904;-73
2022/01/08 01:19:48;;;;;;;;;;;-2.40;99.90;;;;;;5053400;28;20009;-72
2022/01/08 01:22:17;;;;;;;;;;;-2.40;99.90;;;;;;5070842;28;20026;-72
2022/01/08 01:24:43;;;;;;;;;;;-2.40;99.90;;;;;;5071163;28;19913;-73
2022/01/08 01:49:00;;;;;;;;;;;-2.20;99.90;;;;;;5071017;28;19915;-72
2022/01/08 01:51:25;;;;;;;;;;;-2.10;99.90;;;;;;5061862;28;19909;-73
2022/01/08 01:53:51;;;;;;;;;;;-2.10;99.90;;;;;;5050631;28;19908;-73
2022/01/08 01:56:20;;;;;;;;;;;-2.10;99.90;;;;;;5057415;28;19908;-73
2022/01/08 01:58:46;;;;;;;;;;;-2.10;99.90;;;;;;5070874;28;19916;-72
2022/01/08 02:01:12;;;;;;;;;;;-2.20;99.90;;;;;;5046055;28;20387;-72
2022/01/08 02:03:37;;;;;;;;;;;-2.20;99.90;;;;;;5050825;28;19915;-72
2022/01/08 02:06:03;;;;;;;;;;;-2.20;99.90;;;;;;5055915;28;20002;-73
2022/01/08 02:08:29;;;;;;;;;;;-2.30;99.90;;;;;;5070540;28;19959;-73
2022/01/08 02:10:55;;;;;;;;;;;-2.30;99.90;;;;;;5070452;28;20020;-72
2022/01/08 02:13:22;;;;;;;;;;;-2.30;99.90;;;;;;5070223;28;20318;-72
2022/01/08 02:15:51;;;;;;;;;;;-2.30;99.90;;;;;;5069776;28;19909;-73
2022/01/08 02:18:17;;;;;;;;;;;-2.40;99.90;;;;;;5052217;28;19909;-74
2022/01/08 02:20:43;;;;;;;;;;;-2.30;99.90;;;;;;5070179;28;20335;-72
2022/01/08 02:23:08;;;;;;;;;;;-2.30;99.90;;;;;;5052006;28;20320;-72
2022/01/08 02:25:34;;;;;;;;;;;-2.30;99.90;;;;;;5051999;28;20376;-73
2022/01/08 02:28:03;;;;;;;;;;;-2.30;99.90;;;;;;5070416;28;19909;-72
2022/01/08 02:30:28;;;;;;;;;;;-2.30;99.90;;;;;;5070318;28;20268;-72
2022/01/08 02:32:54;;;;;;;;;;;-2.30;99.90;;;;;;5052081;28;19923;-72
2022/01/08 02:35:22;;;;;;;;;;;-2.30;99.90;;;;;;5052229;28;20321;-72
2022/01/08 02:37:47;;;;;;;;;;;-2.30;99.90;;;;;;5051807;28;20395;-72
2022/01/08 02:40:14;;;;;;;;;;;-2.20;99.90;;;;;;5070407;28;19912;-72
2022/01/08 02:42:49;;;;;;;;;;;-2.20;99.90;;;;;;5050749;28;20459;-72
2022/01/08 02:45:16;;;;;;;;;;;-2.20;99.90;;;;;;5050240;28;20263;-73
2022/01/08 02:47:41;;;;;;;;;;;-2.20;99.90;;;;;;5052040;28;19915;-73
2022/01/08 02:50:07;;;;;;;;;;;-2.20;99.90;;;;;;5074581;28;19916;-72
2022/01/08 02:52:33;;;;;;;;;;;-2.10;99.90;;;;;;5073580;28;19931;-72
2022/01/08 02:54:58;;;;;;;;;;;-2.10;99.90;;;;;;5074032;28;19920;-72
2022/01/08 02:57:24;;;;;;;;;;;-2.10;99.90;;;;;;5073894;28;19905;-74
2022/01/08 02:59:49;;;;;;;;;;;-2.20;99.90;;;;;;5074245;28;19951;-72
2022/01/08 03:02:15;;;;;;;;;;;-2.20;99.90;;;;;;5073329;28;20382;-73
2022/01/08 03:04:41;;;;;;;;;;;-2.20;99.90;;;;;;5073764;28;19912;-70
2022/01/08 03:07:06;;;;;;;;;;;-2.20;99.90;;;;;;5055576;28;20039;-73
2022/01/08 03:09:37;;;;;;;;;;;-2.10;99.90;;;;;;5055800;28;20427;-73
2022/01/08 03:12:02;;;;;;;;;;;-2.20;99.90;;;;;;5073244;28;19957;-73
2022/01/08 03:14:28;;;;;;;;;;;-2.20;99.90;;;;;;5055679;28;19916;-72
2022/01/08 03:16:53;;;;;;;;;;;-2.20;99.90;;;;;;5073520;28;20330;-72
2022/01/08 03:19:19;;;;;;;;;;;-2.10;99.90;;;;;;5073871;28;19920;-73
2022/01/08 03:21:51;;;;;;;;;;;-2.10;99.90;;;;;;5055514;28;19958;-72
2022/01/08 03:24:25;;;;;;;;;;;-2.10;99.90;;;;;;5055871;28;19917;-73
2022/01/08 03:26:51;;;;;;;;;;;-2.10;99.90;;;;;;5055744;28;20390;-72
2022/01/08 03:29:16;;;;;;;;;;;-2.00;99.90;;;;;;5073402;28;19916;-72
2022/01/08 03:31:42;;;;;;;;;;;-2.00;99.90;;;;;;5062035;28;19913;-72
2022/01/08 03:34:07;;;;;;;;;;;-2.10;99.90;;;;;;5034908;28;19909;-72
2022/01/08 03:36:33;;;;;;;;;;;-2.10;99.90;;;;;;5062276;28;19908;-72
2022/01/08 03:38:59;;;;;;;;;;;-2.20;99.90;;;;;;5073124;28;19919;-71
2022/01/08 03:41:25;;;;;;;;;;;-2.20;99.90;;;;;;5064736;28;19923;-73
2022/01/08 03:43:50;;;;;;;;;;;-2.20;99.90;;;;;;5053024;28;19905;-73
2022/01/08 03:46:19;;;;;;;;;;;-2.20;99.90;;;;;;5041599;28;19920;-73
2022/01/08 03:48:48;;;;;;;;;;;-2.20;99.90;;;;;;5073092;28;20367;-72
2022/01/08 03:51:14;;;;;;;;;;;-2.20;99.90;;;;;;5073107;28;19916;-72
2022/01/08 03:53:40;;;;;;;;;;;-2.20;99.90;;;;;;5072927;28;19908;-73
2022/01/08 03:56:06;;;;;;;;;;;-2.20;99.90;;;;;;5055013;28;19982;-72
2022/01/08 03:58:32;;;;;;;;;;;-2.20;99.90;;;;;;5072313;28;19908;-72
2022/01/08 04:00:57;;;;;;;;;;;-2.20;99.90;;;;;;5054578;28;19928;-72
2022/01/08 04:03:23;;;;;;;;;;;-2.10;99.90;;;;;;5072915;28;19987;-72
2022/01/08 04:05:49;;;;;;;;;;;-2.10;99.90;;;;;;5073003;28;19913;-74
2022/01/08 04:08:18;;;;;;;;;;;-2.10;99.90;;;;;;5072879;28;19904;-72
2022/01/08 04:10:44;;;;;;;;;;;-2.10;99.90;;;;;;5072220;28;19920;-73
2022/01/08 04:13:16;;;;;;;;;;;-2.10;99.90;;;;;;5054801;28;19957;-73
2022/01/08 04:15:45;;;;;;;;;;;-2.10;99.90;;;;;;5054506;28;19920;-71
2022/01/08 04:18:11;;;;;;;;;;;-2.10;99.90;;;;;;5054598;28;19908;-72
2022/01/08 04:20:50;;;;;;;;;;;-2.10;99.90;;;;;;5072714;28;19920;-72
2022/01/08 04:23:20;;;;;;;;;;;-2.20;99.90;;;;;;5054659;28;19961;-72
2022/01/08 04:25:46;;;;;;;;;;;-2.20;99.90;;;;;;5054032;28;19969;-72
2022/01/08 04:28:11;;;;;;;;;;;-2.30;99.90;;;;;;5053872;28;20001;-73
2022/01/08 04:30:37;;;;;;;;;;;-2.30;99.90;;;;;;5072574;28;20491;-73
2022/01/08 04:33:03;;;;;;;;;;;-2.10;99.90;;;;;;5072297;28;19911;-72
2022/01/08 04:35:28;;;;;;;;;;;-2.10;99.90;;;;;;5072086;28;19912;-73
2022/01/08 04:37:54;;;;;;;;;;;-2.10;99.90;;;;;;5052304;28;19937;-73
2022/01/08 04:40:19;;;;;;;;;;;-2.10;99.90;;;;;;5055272;28;19921;-72
2022/01/08 04:42:45;;;;;;;;;;;-2.20;99.90;;;;;;5034600;28;19917;-73
2022/01/08 04:45:11;;;;;;;;;;;-2.20;99.90;;;;;;5052370;28;19913;-72
2022/01/08 04:47:36;;;;;;;;;;;-2.30;99.90;;;;;;5051723;28;20003;-72
2022/01/08 04:50:02;;;;;;;;;;;-2.30;99.90;;;;;;5072412;28;19924;-72
2022/01/08 04:52:28;;;;;;;;;;;-2.30;99.90;;;;;;5071616;28;19915;-72
2022/01/08 04:54:53;;;;;;;;;;;-2.40;99.90;;;;;;5072018;28;19912;-73
2022/01/08 04:57:19;;;;;;;;;;;-2.40;99.90;;;;;;5071981;28;19915;-72
2022/01/08 04:59:44;;;;;;;;;;;-2.40;99.90;;;;;;5072102;28;19999;-72
2022/01/08 05:02:10;;;;;;;;;;;-2.40;99.90;;;;;;5071444;28;19908;-72
2022/01/08 05:04:36;;;;;;;;;;;-2.50;99.90;;;;;;5071605;28;19946;-72
2022/01/08 05:07:01;;;;;;;;;;;-2.50;99.90;;;;;;5070994;28;19997;-72
2022/01/08 05:09:27;;;;;;;;;;;-2.50;99.90;;;;;;5071504;28;19993;-72
2022/01/08 05:11:52;;;;;;;;;;;-2.60;99.90;;;;;;5071276;28;20335;-72
2022/01/08 05:14:18;;;;;;;;;;;-2.60;99.90;;;;;;5071253;28;19919;-72
2022/01/08 05:16:45;;;;;;;;;;;-2.60;99.90;;;;;;5071069;28;20395;-73
2022/01/08 05:19:11;;;;;;;;;;;-2.60;99.90;;;;;;5053405;28;19959;-71
2022/01/08 05:21:38;;;;;;;;;;;-2.60;99.90;;;;;;5071034;28;20308;-71
2022/01/08 05:24:04;;;;;;;;;;;-2.50;99.90;;;;;;5071405;28;19955;-72
2022/01/08 05:26:30;;;;;;;;;;;-2.50;99.90;;;;;;5052541;28;19910;-73
2022/01/08 05:28:55;;;;;;;;;;;-2.50;99.90;;;;;;5070918;28;19904;-72
2022/01/08 05:31:23;;;;;;;;;;;-2.60;99.90;;;;;;5052875;28;20407;-72
2022/01/08 05:33:49;;;;;;;;;;;-2.50;99.90;;;;;;5071051;28;19961;-73
2022/01/08 05:36:15;;;;;;;;;;;-2.50;99.90;;;;;;5070513;28;19983;-73
2022/01/08 05:38:40;;;;;;;;;;;-2.40;99.90;;;;;;5070982;28;19948;-72
2022/01/08 05:41:06;;;;;;;;;;;-2.40;99.90;;;;;;5065096;28;20011;-72
2022/01/08 05:43:32;;;;;;;;;;;-2.40;99.90;;;;;;5050969;28;19904;-71
2022/01/08 05:45:57;;;;;;;;;;;-2.40;99.90;;;;;;5054848;28;19922;-71
2022/01/08 05:48:24;;;;;;;;;;;-2.40;99.90;;;;;;5070821;28;19904;-72
2022/01/08 05:50:49;;;;;;;;;;;-2.40;99.90;;;;;;5052395;28;19962;-73
2022/01/08 05:53:16;;;;;;;;;;;-2.40;99.90;;;;;;5070649;28;20290;-73
2022/01/08 05:55:41;;;;;;;;;;;-2.40;99.90;;;;;;5070814;28;19913;-73
2022/01/08 05:58:07;;;;;;;;;;;-2.30;99.90;;;;;;5071074;28;20364;-72
2022/01/08 06:00:32;;;;;;;;;;;-2.30;99.90;;;;;;5052530;28;20245;-72
2022/01/08 06:02:58;;;;;;;;;;;-2.30;99.90;;;;;;5070554;28;20376;-74
2022/01/08 06:05:25;;;;;;;;;;;-2.30;99.90;;;;;;5070554;28;20272;-72
2022/01/08 06:07:50;;;;;;;;;;;-2.30;99.90;;;;;;5070660;28;19977;-72
2022/01/08 06:10:16;;;;;;;;;;;-2.30;99.90;;;;;;5070796;28;20344;-73
2022/01/08 06:12:41;;;;;;;;;;;-2.20;99.90;;;;;;5070342;28;19918;-72
2022/01/08 06:15:07;;;;;;;;;;;-2.20;99.90;;;;;;5070621;28;19912;-73
2022/01/08 06:17:33;;;;;;;;;;;-2.20;99.90;;;;;;5052105;28;20280;-72
2022/01/08 06:19:58;;;;;;;;;;;-2.20;99.90;;;;;;5052124;28;19912;-72
2022/01/08 06:22:24;;;;;;;;;;;-2.20;99.90;;;;;;5069450;28;19960;-72
2022/01/08 06:24:50;;;;;;;;;;;-2.20;99.90;;;;;;5051764;28;20307;-71
2022/01/08 06:27:15;;;;;;;;;;;-2.30;99.90;;;;;;5069837;28;20295;-73
2022/01/08 06:29:41;;;;;;;;;;;-2.30;99.90;;;;;;5052118;28;19936;-73
2022/01/08 06:32:07;;;;;;;;;;;-2.30;99.90;;;;;;5070318;28;19908;-73
2022/01/08 06:34:32;;;;;;;;;;;-2.30;99.90;;;;;;5070244;28;20261;-73
2022/01/08 06:36:58;;;;;;;;;;;-2.30;99.90;;;;;;5069532;28;19963;-73
2022/01/08 06:39:23;;;;;;;;;;;-2.20;99.90;;;;;;5070035;28;19919;-72
2022/01/08 06:41:49;;;;;;;;;;;-2.20;99.90;;;;;;5048042;28;19923;-73
2022/01/08 06:44:14;;;;;;;;;;;-2.20;99.90;;;;;;5052073;28;20259;-73
2022/01/08 06:46:40;;;;;;;;;;;-2.20;99.90;;;;;;5059421;28;19905;-72
2022/01/08 06:49:07;;;;;;;;;;;-2.20;99.90;;;;;;5049973;28;19904;-72
2022/01/08 06:51:32;;;;;;;;;;;-2.10;99.90;;;;;;5059186;28;19948;-72
2022/01/08 06:53:58;;;;;;;;;;;-2.00;99.90;;;;;;5069723;28;19948;-72
2022/01/08 06:56:23;;;;;;;;;;;-2.00;99.90;;;;;;5069778;28;19905;-72
2022/01/08 06:58:49;;;;;;;;;;;-2.00;99.90;;;;;;5069911;28;20343;-73
2022/01/08 07:01:15;;;;;;;;;;;-2.00;99.90;;;;;;5062672;28;20398;-73
2022/01/08 07:03:40;;;;;;;;;;;-1.90;99.90;;;;;;5050259;28;19905;-72
2022/01/08 07:06:06;;;;;;;;;;;-1.90;99.90;;;;;;5055723;28;19912;-73
2022/01/08 07:08:31;;;;;;;;;;;-1.80;99.90;;;;;;5069650;28;19908;-72
2022/01/08 07:10:57;;;;;;;;;;;-1.10;99.90;;;;;;5069848;28;20058;-72
2022/01/08 07:13:23;;;;;;;;;;;0.40;99.90;;;;;;5069728;28;19911;-73
2022/01/08 07:15:48;;;;;;;;;;;1.10;99.90;;;;;;5066971;28;20376;-73
2022/01/08 07:18:14;;;;;;;;;;;1.20;99.90;;;;;;5049699;28;20288;-72
2022/01/08 07:20:39;;;;;;;;;;;1.70;99.90;;;;;;5051456;28;19917;-72
2022/01/08 07:23:05;;;;;;;;;;;2.80;99.90;;;;;;5051603;28;19912;-72
2022/01/08 07:25:31;;;;;;;;;;;4.00;99.90;;;;;;5069618;28;19913;-73
2022/01/08 07:27:56;;;;;;;;;;;4.60;99.90;;;;;;5051295;28;20418;-73
2022/01/08 07:30:22;;;;;;;;;;;5.30;99.90;;;;;;5069850;28;20421;-72
2022/01/08 07:32:48;;;;;;;;;;;6.20;99.90;;;;;;5049665;28;19930;-73
2022/01/08 07:35:15;;;;;;;;;;;6.60;99.10;;;;;;5053530;28;19975;-74
2022/01/08 07:37:42;;;;;;;;;;;6.00;98.70;;;;;;5053636;28;20337;-74
2022/01/08 07:40:08;;;;;;;;;;;5.10;99.70;;;;;;5073518;28;19919;-74
2022/01/08 07:42:34;;;;;;;;;;;5.10;99.90;;;;;;5054951;28;19917;-74
2022/01/08 07:44:59;;;;;;;;;;;5.60;99.60;;;;;;5053507;28;19919;-74
2022/01/08 07:47:25;;;;;;;;;;;6.00;98.90;;;;;;5051407;28;19904;-73
2022/01/08 07:49:50;;;;;;;;;;;6.00;98.60;;;;;;5072861;28;19966;-72
2022/01/08 07:52:16;;;;;;;;;;;5.80;98.60;;;;;;5073080;28;19904;-72
2022/01/08 07:54:42;;;;;;;;;;;5.30;99.30;;;;;;5073213;28;19955;-73
2022/01/08 07:57:08;;;;;;;;;;;5.50;99.50;;;;;;5054477;28;19908;-73
2022/01/08 07:59:34;;;;;;;;;;;5.50;99.30;;;;;;5072789;28;19916;-73
2022/01/08 08:01:59;;;;;;;;;;;5.60;99.60;;;;;;5072617;28;19916;-74
2022/01/08 08:04:25;;;;;;;;;;;5.20;99.30;;;;;;5054703;28;20022;-74
2022/01/08 08:06:51;;;;;;;;;;;4.80;99.90;;;;;;5072645;28;19908;-73
2022/01/08 08:09:16;;;;;;;;;;;4.30;99.90;;;;;;5072292;28;20198;-73
2022/01/08 08:11:42;;;;;;;;;;;4.10;99.90;;;;;;5072439;28;19913;-73
2022/01/08 08:14:08;;;;;;;;;;;4.20;99.90;;;;;;5054661;28;20368;-74
2022/01/08 08:16:34;;;;;;;;;;;3.80;99.90;;;;;;5072352;28;20370;-74
2022/01/08 08:19:00;;;;;;;;;;;3.40;99.90;;;;;;5072337;28;19940;-72
2022/01/08 08:21:25;;;;;;;;;;;3.60;99.90;;;;;;5045726;28;20342;-73
2022/01/08 08:23:51;;;;;;;;;;;3.50;99.90;;;;;;5052336;28;19987;-73
2022/01/08 08:26:17;;;;;;;;;;;3.40;99.90;;;;;;5059093;28;19912;-74
2022/01/08 08:28:42;;;;;;;;;;;3.30;99.90;;;;;;5071881;28;20376;-73
2022/01/08 08:31:09;;;;;;;;;;;3.30;99.90;;;;;;5053906;28;19962;-74
2022/01/08 08:33:34;;;;;;;;;;;3.30;99.90;;;;;;5054224;28;19992;-72
2022/01/08 08:36:00;;;;;;;;;;;3.40;99.90;;;;;;5071811;28;20346;-73
2022/01/08 08:38:25;;;;;;;;;;;3.40;99.90;;;;;;5071862;28;19954;-74
2022/01/08 08:40:51;;;;;;;;;;;3.20;99.90;;;;;;5068104;28;19923;-73
2022/01/08 08:43:19;;;;;;;;;;;3.20;99.90;;;;;;5034314;28;19940;-73
2022/01/08 08:45:45;;;;;;;;;;;3.20;99.90;;;;;;5053636;28;19924;-73
2022/01/08 08:48:11;;;;;;;;;;;3.10;99.90;;;;;;5053680;28;19908;-73
2022/01/08 08:50:36;;;;;;;;;;;3.30;99.90;;;;;;5053512;28;20325;-75
2022/01/08 08:53:02;;;;;;;;;;;3.30;99.90;;;;;;5071774;28;19935;-74
2022/01/08 08:55:28;;;;;;;;;;;3.40;99.90;;;;;;5071541;28;19939;-72
2022/01/08 08:57:53;;;;;;;;;;;3.60;99.90;;;;;;5053383;28;19919;-73
2022/01/08 09:00:19;;;;;;;;;;;3.40;99.90;;;;;;5071293;28;19916;-72
2022/01/08 09:02:44;;;;;;;;;;;3.50;99.90;;;;;;5052923;28;19912;-73
2022/01/08 09:05:10;;;;;;;;;;;3.80;99.90;;;;;;5053635;28;19912;-72
2022/01/08 09:07:36;;;;;;;;;;;3.90;99.90;;;;;;5052871;28;19986;-73
2022/01/08 09:10:03;;;;;;;;;;;3.60;99.90;;;;;;5053506;28;19995;-73
2022/01/08 09:12:29;;;;;;;;;;;3.30;99.90;;;;;;5053139;28;19948;-74
2022/01/08 09:14:55;;;;;;;;;;;2.90;99.90;;;;;;5053523;28;19997;-74
2022/01/08 09:17:21;;;;;;;;;;;2.70;99.90;;;;;;5052864;28;20456;-74
2022/01/08 09:19:46;;;;;;;;;;;2.70;99.90;;;;;;5071037;28;19916;-75
2022/01/08 09:22:12;;;;;;;;;;;2.90;99.90;;;;;;5070889;28;19912;-73
2022/01/08 09:24:38;;;;;;;;;;;3.00;99.90;;;;;;5071124;28;20356;-73
2022/01/08 09:27:04;;;;;;;;;;;2.90;99.90;;;;;;5052689;28;19982;-73
2022/01/08 09:29:29;;;;;;;;;;;3.10;99.90;;;;;;5070965;28;19919;-73
2022/01/08 09:31:55;;;;;;;;;;;2.90;99.90;;;;;;5070655;28;20003;-75
2022/01/08 09:34:21;;;;;;;;;;;2.90;99.90;;;;;;5052880;28;19939;-73
2022/01/08 09:36:47;;;;;;;;;;;2.70;99.90;;;;;;5071079;28;19908;-75
2022/01/08 09:39:13;;;;;;;;;;;2.50;99.90;;;;;;5070908;28;19915;-76
2022/01/08 09:41:38;;;;;;;;;;;2.50;99.90;;;;;;5070800;28;19920;-75
2022/01/08 09:44:04;;;;;;;;;;;2.50;99.90;;;;;;5070849;28;19904;-73
2022/01/08 09:46:30;;;;;;;;;;;2.40;99.90;;;;;;5052910;28;20141;-75
2022/01/08 09:48:56;;;;;;;;;;;2.40;99.90;;;;;;5071350;28;20332;-75
2022/01/08 09:51:21;;;;;;;;;;;2.30;99.90;;;;;;5070628;28;19904;-76
2022/01/08 09:53:47;;;;;;;;;;;2.30;99.90;;;;;;5070838;28;20272;-75
2022/01/08 09:56:13;;;;;;;;;;;2.30;99.90;;;;;;5035837;28;20363;-73
2022/01/08 09:58:39;;;;;;;;;;;2.60;99.90;;;;;;5069795;28;20364;-74
2022/01/08 10:01:23;;;;;;;;;;;2.80;99.90;;;;;;5046668;28;20065;-74
2022/01/08 10:03:48;;;;;;;;;;;2.60;99.90;;;;;;5032405;28;19947;-73
2022/01/08 10:06:20;;;;;;;;;;;2.50;99.90;;;;;;5038737;28;19963;-73
2022/01/08 10:08:46;;;;;;;;;;;2.20;99.90;;;;;;5052510;28;20276;-73
2022/01/08 10:11:12;;;;;;;;;;;2.10;99.90;;;;;;5069645;28;19908;-74
2022/01/08 10:13:42;;;;;;;;;;;1.90;99.90;;;;;;5070029;28;19916;-74
2022/01/08 10:18:59;;;;;;;;;;;1.50;99.90;;;;;;5070437;28;19976;-73
2022/01/08 10:21:27;;;;;;;;;;;1.40;99.90;;;;;;5051272;28;20344;-72
2022/01/08 10:23:54;;;;;;;;;;;1.40;99.90;;;;;;5069837;28;19919;-73
2022/01/08 10:26:21;;;;;;;;;;;1.50;99.90;;;;;;5052117;28;20273;-72
2022/01/08 10:28:51;;;;;;;;;;;2.40;99.90;;;;;;5052058;28;19996;-73
2022/01/08 10:31:16;;;;;;;;;;;2.20;99.90;;;;;;5069807;28;19920;-73
2022/01/08 10:33:48;;;;;;;;;;;2.20;99.90;;;;;;5051995;28;19916;-73
2022/01/08 10:36:14;;;;;;;;;;;2.00;99.90;;;;;;5069884;28;19924;-74
2022/01/08 10:38:40;;;;;;;;;;;2.00;99.90;;;;;;5070396;28;20407;-74
2022/01/08 10:41:12;;;;;;;;;;;2.00;99.90;;;;;;5045253;28;20015;-73
2022/01/08 10:43:37;;;;;;;;;;;2.20;99.90;;;;;;5049786;28;19909;-74
2022/01/08 10:46:16;;;;;;;;;;;2.20;99.90;;;;;;5054715;28;19911;-71
2022/01/08 10:48:44;;;;;;;;;;;2.40;99.90;;;;;;5051797;28;19919;-73
2022/01/08 10:51:11;;;;;;;;;;;2.40;99.90;;;;;;5069648;28;19932;-72
2022/01/08 10:53:53;;;;;;;;;;;2.60;99.90;;;;;;5070220;28;20272;-72
2022/01/08 10:56:20;;;;;;;;;;;2.70;99.90;;;;;;5069503;28;19915;-73
2022/01/08 10:58:45;;;;;;;;;;;2.50;99.90;;;;;;5069827;28;19973;-73
2022/01/08 11:01:11;;;;;;;;;;;2.70;99.90;;;;;;5069208;28;20326;-73
2022/01/08 11:03:39;;;;;;;;;;;2.80;99.90;;;;;;5051253;28;19908;-74
2022/01/08 11:06:04;;;;;;;;;;;2.60;99.90;;;;;;5069271;28;19904;-73
2022/01/08 11:08:30;;;;;;;;;;;2.60;99.90;;;;;;5052797;28;19923;-73
2022/01/08 11:10:55;;;;;;;;;;;2.40;99.90;;;;;;5073449;28;19920;-75
2022/01/08 11:13:22;;;;;;;;;;;2.30;99.90;;;;;;5055527;28;19912;-74
2022/01/08 11:15:51;;;;;;;;;;;2.10;99.90;;;;;;5052469;28;20042;-74
2022/01/08 11:18:19;;;;;;;;;;;2.10;99.90;;;;;;5035741;28;19920;-73
2022/01/08 11:20:46;;;;;;;;;;;2.20;99.90;;;;;;5038221;28;19924;-74
2022/01/08 11:23:12;;;;;;;;;;;2.30;99.90;;;;;;5073780;28;20066;-74
2022/01/08 11:25:38;;;;;;;;;;;2.20;99.90;;;;;;5055439;28;20330;-74
2022/01/08 11:28:05;;;;;;;;;;;1.90;99.90;;;;;;5073570;28;19915;-74
2022/01/08 11:30:32;;;;;;;;;;;1.80;99.90;;;;;;5055102;28;19919;-74
2022/01/08 11:33:02;;;;;;;;;;;2.10;99.90;;;;;;5073644;28;19958;-74
2022/01/08 11:35:29;;;;;;;;;;;2.20;99.90;;;;;;5054903;28;19978;-74
2022/01/08 11:37:56;;;;;;;;;;;2.40;99.90;;;;;;5055270;28;19988;-74
2022/01/08 11:40:23;;;;;;;;;;;2.40;99.90;;;;;;5073199;28;19912;-73
2022/01/08 11:42:49;;;;;;;;;;;2.40;99.90;;;;;;5051478;28;20418;-74
2022/01/08 11:45:16;;;;;;;;;;;2.70;99.90;;;;;;5053308;28;19912;-72
2022/01/08 11:47:43;;;;;;;;;;;2.70;99.90;;;;;;5072211;28;20288;-73
2022/01/08 11:50:10;;;;;;;;;;;2.70;99.90;;;;;;5054989;28;20319;-74
2022/01/08 11:52:35;;;;;;;;;;;2.50;99.90;;;;;;5072793;28;20010;-73
2022/01/08 11:55:01;;;;;;;;;;;2.40;99.90;;;;;;5072959;28;19932;-73
2022/01/08 11:57:28;;;;;;;;;;;2.00;99.90;;;;;;5073031;28;19917;-73
2022/01/08 11:59:58;;;;;;;;;;;1.50;99.90;;;;;;5073142;28;20289;-74
2022/01/08 12:02:41;;;;;;;;;;;1.50;99.90;;;;;;5053801;28;19920;-74
2022/01/08 12:05:08;;;;;;;;;;;1.70;99.90;;;;;;5072595;28;20654;-72
2022/01/08 12:07:36;;;;;;;;;;;2.00;99.90;;;;;;5072350;28;19913;-74
2022/01/08 12:10:04;;;;;;;;;;;2.20;99.90;;;;;;5071676;28;19917;-74
2022/01/08 12:12:45;;;;;;;;;;;2.40;99.90;;;;;;5072081;28;19913;-72
2022/01/08 12:15:11;;;;;;;;;;;2.40;99.90;;;;;;5072570;28;20286;-72
2022/01/08 12:17:53;;;;;;;;;;;2.60;99.90;;;;;;5054499;28;19962;-75
2022/01/08 12:20:37;;;;;;;;;;;2.00;99.90;;;;;;5051888;28;20272;-73
2022/01/08 12:23:33;;;;;;;;;;;1.30;99.90;;;;;;5054356;28;20531;-73
2022/01/08 12:26:01;;;;;;;;;;;0.80;99.90;;;;;;5063025;28;19913;-72
2022/01/08 12:28:45;;;;;;;;;;;0.70;99.90;;;;;;5072378;28;19909;-73
2022/01/08 12:31:45;;;;;;;;;;;0.70;99.90;;;;;;5072174;28;20317;-73
2022/01/08 12:34:46;;;;;;;;;;;0.50;99.90;;;;;;5061036;28;20289;-73
2022/01/08 12:37:12;;;;;;;;;;;0.40;99.90;;;;;;5061743;28;20077;-74
2022/01/08 12:39:44;;;;;;;;;;;0.40;99.90;;;;;;5037668;28;19986;-73
2022/01/08 12:42:19;;;;;;;;;;;0.50;99.90;;;;;;5057173;28;19928;-73
2022/01/08 12:44:56;;;;;;;;;;;0.50;99.90;;;;;;5033893;28;19908;-73
2022/01/08 12:47:37;;;;;;;;;;;0.50;99.90;;;;;;5049771;28;20379;-73
2022/01/08 12:50:21;;;;;;;;;;;0.60;99.90;;;;;;5071890;28;19984;-73
2022/01/08 12:53:05;;;;;;;;;;;0.60;99.90;;;;;;5071645;28;20283;-72
2022/01/08 12:55:31;;;;;;;;;;;0.60;99.90;;;;;;5053371;28;19916;-73
2022/01/08 12:57:57;;;;;;;;;;;0.50;99.90;;;;;;5071906;28;20254;-74
2022/01/08 13:00:23;;;;;;;;;;;0.50;99.90;;;;;;5071416;28;20423;-73
2022/01/08 13:02:49;;;;;;;;;;;0.40;99.90;;;;;;5053429;28;20356;-73
2022/01/08 13:05:14;;;;;;;;;;;0.30;99.90;;;;;;5052921;28;19908;-73
2022/01/08 13:07:50;;;;;;;;;;;0.30;99.90;;;;;;5071374;28;20390;-73
2022/01/08 13:10:16;;;;;;;;;;;0.30;99.90;;;;;;5053423;28;19908;-74
2022/01/08 13:12:42;;;;;;;;;;;0.40;99.90;;;;;;5053387;28;20383;-73
2022/01/08 13:15:08;;;;;;;;;;;0.30;99.90;;;;;;5071428;28;20322;-73
2022/01/08 13:17:34;;;;;;;;;;;0.30;99.90;;;;;;5053664;28;19913;-73
2022/01/08 13:20:00;;;;;;;;;;;0.30;99.90;;;;;;5051242;28;20290;-74
2022/01/08 13:22:27;;;;;;;;;;;0.20;99.90;;;;;;5067677;28;20279;-74
2022/01/08 13:24:52;;;;;;;;;;;0.10;99.90;;;;;;5070875;28;19905;-73
2022/01/08 13:27:20;;;;;;;;;;;0.10;99.90;;;;;;5071112;28;19913;-74
2022/01/08 13:29:46;;;;;;;;;;;0.10;99.90;;;;;;5053104;28;19915;-74
2022/01/08 13:32:13;;;;;;;;;;;0.10;99.90;;;;;;5070837;28;20006;-74
2022/01/08 13:35:08;;;;;;;;;;;0.10;99.90;;;;;;5070744;28;20004;-73
2022/01/08 13:37:33;;;;;;;;;;;0.10;99.90;;;;;;5039539;28;19920;-75
2022/01/08 13:40:01;;;;;;;;;;;0.00;99.90;;;;;;5070731;28;19905;-73
2022/01/08 13:42:36;;;;;;;;;;;0.00;99.90;;;;;;5066940;28;19930;-74
2022/01/08 13:45:08;;;;;;;;;;;0.00;99.90;;;;;;5070897;28;19905;-72
2022/01/08 13:47:35;;;;;;;;;;;0.00;99.90;;;;;;5053319;28;19993;-74
2022/01/08 13:50:03;;;;;;;;;;;0.00;99.90;;;;;;5050823;28;19905;-73
2022/01/08 13:52:38;;;;;;;;;;;0.00;99.90;;;;;;5067838;28;19912;-74
2022/01/08 13:55:19;;;;;;;;;;;0.00;99.90;;;;;;5070689;28;19923;-72
2022/01/08 13:57:45;;;;;;;;;;;0.00;99.90;;;;;;5052533;28;19934;-72
2022/01/08 14:00:14;;;;;;;;;;;0.00;99.90;;;;;;5070562;28;19968;-72
2022/01/08 14:02:40;;;;;;;;;;;0.00;99.90;;;;;;5070578;28;19916;-71
2022/01/08 14:05:05;;;;;;;;;;;0.00;99.90;;;;;;5070234;28;20279;-74
2022/01/08 14:07:35;;;;;;;;;;;0.00;99.90;;;;;;5070159;28;19974;-75
2022/01/08 14:10:00;;;;;;;;;;;0.10;99.90;;;;;;5070493;28;19954;-74
2022/01/08 14:12:26;;;;;;;;;;;0.00;99.90;;;;;;5070349;28;19920;-74
2022/01/08 14:14:52;;;;;;;;;;;0.00;99.90;;;;;;5070210;28;19911;-74
2022/01/08 14:17:18;;;;;;;;;;;0.00;99.90;;;;;;5069869;28;20003;-74
2022/01/08 14:19:44;;;;;;;;;;;0.00;99.90;;;;;;5052428;28;19916;-74
2022/01/08 14:22:10;;;;;;;;;;;-0.10;99.90;;;;;;5069718;28;20301;-73
2022/01/08 14:24:36;;;;;;;;;;;-0.10;99.90;;;;;;5052057;28;20339;-73
2022/01/08 14:27:03;;;;;;;;;;;-0.10;99.90;;;;;;5070100;28;20011;-73
2022/01/08 14:29:30;;;;;;;;;;;-0.10;99.90;;;;;;5070225;28;19908;-73
2022/01/08 14:31:56;;;;;;;;;;;0.00;99.90;;;;;;5052067;28;19913;-73
2022/01/08 14:34:22;;;;;;;;;;;0.00;99.90;;;;;;5052151;28;19904;-74
2022/01/08 14:36:56;;;;;;;;;;;0.00;99.90;;;;;;5069926;28;19961;-73
2022/01/08 14:39:31;;;;;;;;;;;0.00;99.90;;;;;;5052389;28;19999;-73
2022/01/08 14:41:57;;;;;;;;;;;0.00;99.90;;;;;;5057121;28;19974;-73
2022/01/08 14:44:23;;;;;;;;;;;0.00;99.90;;;;;;5049809;28;19905;-72
2022/01/08 14:46:49;;;;;;;;;;;0.00;99.90;;;;;;5060966;28;19916;-73
2022/01/08 14:49:14;;;;;;;;;;;0.00;99.90;;;;;;5051905;28;19991;-73